Time;durP1;ratioP1;P1;durP2;ratioP2;P2;SDS_P1;SDS_P2;PMS_P1;PMS_P2;Temp;Humidity;BMP_temperature;BMP_pressure;BME280_temperature;BME280_humidity;BME280_pressure;Samples;Min_cycle;Max_cycle;Signal;HPM_P1;HPM_P2
2024/01/31 00:02:04;;;;;;;701.13;455.33;;;;;;;;;;7326450;19;20395;-23
2024/01/31 00:04:33;;;;;;;716.40;463.53;;;;;;;;;;7348641;19;20407;-21
2024/01/31 00:07:03;;;;;;;1077.47;720.67;;;;;;;;;;7327192;19;20773;-25
2024/01/31 00:09:32;;;;;;;1146.33;765.50;;;;;;;;;;7349608;19;20427;-23
2024/01/31 00:12:01;;;;;;;853.20;584.23;;;;;;;;;;7326383;19;20381;-24
2024/01/31 00:14:31;;;;;;;839.27;568.87;;;;;;;;;;7349460;19;20503;-23
2024/01/31 00:17:00;;;;;;;832.70;573.73;;;;;;;;;;7326633;19;20435;-22
2024/01/31 00:19:32;;;;;;;834.63;566.23;;;;;;;;;;7349149;19;20966;-24
2024/01/31 00:22:02;;;;;;;817.20;554.87;;;;;;;;;;7325619;19;21332;-23
2024/01/31 00:24:31;;;;;;;831.23;563.73;;;;;;;;;;7348466;19;20431;-21
2024/01/31 00:27:01;;;;;;;812.00;553.53;;;;;;;;;;7327104;19;20435;-25
2024/01/31 00:29:30;;;;;;;821.20;557.80;;;;;;;;;;7349158;19;20518;-23
2024/01/31 00:32:00;;;;;;;798.37;547.53;;;;;;;;;;7325802;19;20427;-24
2024/01/31 00:34:33;;;;;;;800.30;545.47;;;;;;;;;;7348717;19;20781;-23
2024/01/31 00:37:02;;;;;;;817.53;553.57;;;;;;;;;;7324773;19;20452;-22
2024/01/31 00:39:32;;;;;;;799.27;540.67;;;;;;;;;;7349086;19;20860;-24
2024/01/31 00:42:02;;;;;;;790.30;541.27;;;;;;;;;;7326505;19;20900;-27
2024/01/31 00:44:32;;;;;;;787.10;532.37;;;;;;;;;;7347995;19;20954;-23
2024/01/31 00:47:02;;;;;;;792.07;534.90;;;;;;;;;;7326839;19;20491;-22
2024/01/31 00:49:34;;;;;;;779.80;528.60;;;;;;;;;;7348855;19;20974;-25
2024/01/31 00:52:04;;;;;;;778.70;522.67;;;;;;;;;;7325176;19;21073;-22
2024/01/31 00:54:34;;;;;;;776.13;525.43;;;;;;;;;;7348071;19;20404;-20
2024/01/31 00:57:03;;;;;;;775.00;525.53;;;;;;;;;;7325885;19;20391;-23
2024/01/31 00:59:32;;;;;;;761.03;507.60;;;;;;;;;;7349312;19;20399;-22
2024/01/31 01:02:02;;;;;;;763.17;516.60;;;;;;;;;;7325513;19;21712;-24
2024/01/31 01:04:31;;;;;;;771.80;512.53;;;;;;;;;;7347219;19;20406;-22
2024/01/31 01:07:03;;;;;;;756.50;499.53;;;;;;;;;;7325035;19;20449;-20
2024/01/31 01:09:33;;;;;;;741.40;503.60;;;;;;;;;;7347827;19;20743;-22
2024/01/31 01:12:02;;;;;;;745.60;498.37;;;;;;;;;;7325487;19;20377;-21
2024/01/31 01:14:32;;;;;;;743.27;502.87;;;;;;;;;;7347148;19;20507;-21
2024/01/31 01:17:02;;;;;;;751.73;500.40;;;;;;;;;;7325021;19;20395;-21
2024/01/31 01:19:31;;;;;;;738.30;492.50;;;;;;;;;;7347915;19;20845;-22
2024/01/31 01:22:04;;;;;;;734.70;495.47;;;;;;;;;;7324332;19;20423;-21
2024/01/31 01:24:34;;;;;;;735.07;492.40;;;;;;;;;;7347737;19;20434;-20
2024/01/31 01:27:03;;;;;;;729.10;487.40;;;;;;;;;;7324888;19;20425;-22
2024/01/31 01:29:33;;;;;;;732.60;483.53;;;;;;;;;;7347283;19;20399;-23
2024/01/31 01:32:02;;;;;;;729.23;480.93;;;;;;;;;;7324470;19;20749;-23
2024/01/31 01:34:32;;;;;;;721.53;479.83;;;;;;;;;;7345203;19;20411;-25
2024/01/31 01:37:04;;;;;;;723.93;482.50;;;;;;;;;;7323237;19;20402;-24
2024/01/31 01:39:33;;;;;;;708.77;471.47;;;;;;;;;;7347182;19;20407;-20
2024/01/31 01:42:03;;;;;;;717.83;476.37;;;;;;;;;;7324400;19;20377;-24
2024/01/31 01:44:32;;;;;;;705.03;469.13;;;;;;;;;;7346358;19;20477;-22
2024/01/31 01:47:02;;;;;;;710.30;467.73;;;;;;;;;;7324305;19;20384;-24
2024/01/31 01:49:35;;;;;;;709.53;469.20;;;;;;;;;;7346142;19;20403;-24
2024/01/31 01:52:08;;;;;;;699.93;463.00;;;;;;;;;;7323557;19;20399;-22
2024/01/31 01:54:38;;;;;;;698.40;461.03;;;;;;;;;;7345816;19;20770;-24
2024/01/31 01:57:08;;;;;;;697.53;455.77;;;;;;;;;;7324879;19;20419;-22
2024/01/31 01:59:37;;;;;;;691.37;452.10;;;;;;;;;;7346396;19;20435;-22
2024/01/31 02:02:07;;;;;;;689.90;453.03;;;;;;;;;;7325384;19;21093;-24
2024/01/31 02:04:36;;;;;;;696.20;456.00;;;;;;;;;;7346192;19;20836;-21
2024/01/31 02:07:09;;;;;;;683.67;450.93;;;;;;;;;;7324239;19;20399;-24
2024/01/31 02:09:38;;;;;;;680.60;446.83;;;;;;;;;;7346409;19;20455;-23
2024/01/31 02:12:08;;;;;;;676.50;443.00;;;;;;;;;;7324355;19;20398;-21
2024/01/31 02:14:38;;;;;;;668.33;435.17;;;;;;;;;;7345371;19;20448;-24
2024/01/31 02:17:08;;;;;;;666.80;440.87;;;;;;;;;;7324439;19;20926;-25
2024/01/31 02:19:40;;;;;;;667.13;430.20;;;;;;;;;;7345780;19;20534;-23
2024/01/31 02:22:12;;;;;;;671.60;436.80;;;;;;;;;;7323827;19;20942;-23
2024/01/31 02:24:44;;;;;;;666.07;434.57;;;;;;;;;;7339177;19;20492;-21
2024/01/31 02:27:14;;;;;;;656.13;421.63;;;;;;;;;;7345496;19;20467;-25
2024/01/31 02:29:43;;;;;;;662.97;424.07;;;;;;;;;;7322879;19;20465;-21
2024/01/31 02:32:13;;;;;;;652.40;422.40;;;;;;;;;;7344473;19;20418;-25
2024/01/31 02:34:42;;;;;;;653.33;415.10;;;;;;;;;;7332734;19;20523;-27
2024/01/31 02:37:11;;;;;;;657.63;419.53;;;;;;;;;;7344538;19;20399;-21
2024/01/31 02:39:44;;;;;;;636.07;410.83;;;;;;;;;;7342507;19;20435;-20
2024/01/31 02:42:14;;;;;;;647.80;414.17;;;;;;;;;;7346057;19;20470;-21
2024/01/31 02:44:43;;;;;;;643.30;412.27;;;;;;;;;;7321366;19;20432;-23
2024/01/31 02:47:13;;;;;;;643.73;411.63;;;;;;;;;;7351422;19;20482;-22
2024/01/31 02:49:42;;;;;;;632.53;408.23;;;;;;;;;;7335468;19;20483;-27
2024/01/31 02:52:12;;;;;;;643.00;406.80;;;;;;;;;;7352152;19;20466;-24
2024/01/31 02:54:44;;;;;;;631.63;409.00;;;;;;;;;;7346462;19;20890;-20
2024/01/31 02:57:13;;;;;;;645.00;407.90;;;;;;;;;;7347369;19;20431;-22
2024/01/31 02:59:43;;;;;;;632.20;401.70;;;;;;;;;;7332500;19;20471;-25
2024/01/31 03:02:12;;;;;;;633.27;400.70;;;;;;;;;;7350990;19;20411;-25
2024/01/31 03:04:42;;;;;;;621.90;401.47;;;;;;;;;;7340415;19;20423;-21
2024/01/31 03:07:12;;;;;;;628.17;395.27;;;;;;;;;;7351186;19;20478;-22
2024/01/31 03:09:45;;;;;;;623.20;394.40;;;;;;;;;;7346189;19;20425;-22
2024/01/31 03:12:14;;;;;;;616.90;392.47;;;;;;;;;;7351321;19;20399;-21
2024/01/31 03:14:43;;;;;;;612.70;387.73;;;;;;;;;;7327349;19;20773;-21
2024/01/31 03:17:13;;;;;;;615.70;388.07;;;;;;;;;;7350728;19;20407;-22
2024/01/31 03:19:42;;;;;;;619.03;390.27;;;;;;;;;;7338096;19;20675;-22
2024/01/31 03:22:12;;;;;;;613.90;385.13;;;;;;;;;;7350550;19;20934;-21
2024/01/31 03:24:41;;;;;;;600.10;378.27;;;;;;;;;;7348621;19;20430;-19
2024/01/31 03:27:13;;;;;;;606.37;382.47;;;;;;;;;;7349710;19;20403;-21
2024/01/31 03:29:45;;;;;;;610.30;380.57;;;;;;;;;;7329424;19;20552;-23
2024/01/31 03:32:14;;;;;;;614.13;382.10;;;;;;;;;;7350075;19;20463;-22
2024/01/31 03:34:44;;;;;;;592.63;369.77;;;;;;;;;;7324747;19;20434;-21
2024/01/31 03:37:13;;;;;;;593.23;375.43;;;;;;;;;;7350541;19;20973;-22
2024/01/31 03:39:43;;;;;;;596.70;374.90;;;;;;;;;;7331132;19;21040;-22
2024/01/31 03:42:15;;;;;;;598.53;375.30;;;;;;;;;;7349709;19;20478;-23
2024/01/31 03:44:44;;;;;;;586.73;367.00;;;;;;;;;;7327116;19;20442;-21
2024/01/31 03:47:14;;;;;;;578.33;363.63;;;;;;;;;;7349791;19;20403;-21
2024/01/31 03:49:45;;;;;;;583.30;365.00;;;;;;;;;;7326981;19;21049;-27
2024/01/31 03:52:15;;;;;;;578.77;360.97;;;;;;;;;;7349965;19;20403;-21
2024/01/31 03:54:45;;;;;;;577.03;358.47;;;;;;;;;;7325842;19;20506;-23
2024/01/31 03:57:17;;;;;;;574.47;357.97;;;;;;;;;;7349018;19;20403;-23
2024/01/31 03:59:46;;;;;;;572.33;358.20;;;;;;;;;;7326759;19;20546;-22
2024/01/31 04:02:15;;;;;;;574.97;357.43;;;;;;;;;;7348718;19;20859;-22
2024/01/31 04:04:45;;;;;;;573.90;354.67;;;;;;;;;;7325887;19;20435;-21
2024/01/31 04:07:14;;;;;;;573.53;357.00;;;;;;;;;;7349985;19;20400;-23
2024/01/31 04:09:44;;;;;;;574.27;353.90;;;;;;;;;;7326330;19;20486;-22
2024/01/31 04:12:13;;;;;;;566.93;346.87;;;;;;;;;;7348843;19;20474;-23
2024/01/31 04:14:45;;;;;;;568.40;378.52;;;;;;;;;;7331083;19;20324;-22
2024/01/31 04:17:14;;;;;;;568.13;357.27;;;;;;;;;;7349757;19;20202;-22
2024/01/31 04:19:48;;;;;;;561.87;346.37;;;;;;;;;;7326309;19;21030;-23
2024/01/31 04:22:18;;;;;;;560.07;346.37;;;;;;;;;;7348471;19;20947;-20
2024/01/31 04:24:48;;;;;;;555.97;338.30;;;;;;;;;;7325849;19;20440;-23
2024/01/31 04:27:17;;;;;;;554.27;338.57;;;;;;;;;;7348138;19;20442;-22
2024/01/31 04:29:49;;;;;;;558.73;343.47;;;;;;;;;;7326208;19;20502;-22
2024/01/31 04:32:19;;;;;;;552.20;336.07;;;;;;;;;;7349245;19;20758;-22
2024/01/31 04:34:48;;;;;;;559.47;341.93;;;;;;;;;;7322905;19;20502;-23
2024/01/31 04:37:17;;;;;;;547.30;330.33;;;;;;;;;;7348767;19;20949;-22
2024/01/31 04:39:50;;;;;;;556.73;330.93;;;;;;;;;;7325645;19;20466;-22
2024/01/31 04:42:20;;;;;;;551.97;334.10;;;;;;;;;;7348509;19;20403;-20
2024/01/31 04:44:52;;;;;;;550.17;331.17;;;;;;;;;;7322148;19;20430;-24
2024/01/31 04:47:25;;;;;;;535.97;323.40;;;;;;;;;;7347995;19;20486;-24
2024/01/31 04:49:55;;;;;;;540.10;325.23;;;;;;;;;;7326632;19;20487;-23
2024/01/31 04:52:25;;;;;;;542.43;323.80;;;;;;;;;;7348023;19;20422;-24
2024/01/31 04:54:55;;;;;;;538.07;323.27;;;;;;;;;;7323662;19;20487;-23
2024/01/31 04:57:24;;;;;;;537.07;322.27;;;;;;;;;;7345270;19;20407;-20
2024/01/31 04:59:56;;;;;;;539.17;322.17;;;;;;;;;;7324969;19;20451;-22
2024/01/31 05:02:26;;;;;;;537.40;320.83;;;;;;;;;;7345493;19;20802;-23
2024/01/31 05:04:55;;;;;;;532.03;314.60;;;;;;;;;;7323658;19;20531;-23
2024/01/31 05:07:25;;;;;;;530.77;314.60;;;;;;;;;;7346519;19;20407;-23
2024/01/31 05:09:54;;;;;;;533.17;318.67;;;;;;;;;;7324007;19;20482;-22
2024/01/31 05:12:24;;;;;;;526.20;313.33;;;;;;;;;;7347832;19;20771;-22
2024/01/31 05:14:53;;;;;;;531.43;318.50;;;;;;;;;;7324126;19;20520;-21
2024/01/31 05:17:25;;;;;;;519.20;308.60;;;;;;;;;;7346442;19;20404;-25
2024/01/31 05:19:54;;;;;;;521.47;313.37;;;;;;;;;;7324732;19;20485;-22
2024/01/31 05:22:24;;;;;;;515.97;304.83;;;;;;;;;;7346882;19;20400;-22
2024/01/31 05:24:53;;;;;;;517.53;303.60;;;;;;;;;;7323645;19;20510;-22
2024/01/31 05:27:23;;;;;;;523.77;312.27;;;;;;;;;;7347424;19;21020;-24
2024/01/31 05:29:52;;;;;;;512.70;300.97;;;;;;;;;;7323811;19;20471;-22
2024/01/31 05:32:21;;;;;;;509.67;299.83;;;;;;;;;;7346139;19;20478;-21
2024/01/31 05:34:53;;;;;;;517.00;299.77;;;;;;;;;;7322264;19;20442;-23
2024/01/31 05:37:23;;;;;;;513.80;300.17;;;;;;;;;;7346713;19;21022;-21
2024/01/31 05:39:52;;;;;;;509.83;297.27;;;;;;;;;;7323265;19;20478;-22
2024/01/31 05:42:22;;;;;;;510.03;297.50;;;;;;;;;;7346851;19;20474;-21
2024/01/31 05:44:53;;;;;;;509.63;297.07;;;;;;;;;;7323356;19;20427;-24
2024/01/31 05:47:22;;;;;;;511.70;299.27;;;;;;;;;;7346214;19;20412;-24
2024/01/31 05:49:54;;;;;;;498.83;294.03;;;;;;;;;;7323918;19;20885;-23
2024/01/31 05:52:24;;;;;;;502.67;290.30;;;;;;;;;;7346961;19;20416;-22
2024/01/31 05:54:53;;;;;;;501.70;291.23;;;;;;;;;;7322440;19;20442;-24
2024/01/31 05:57:23;;;;;;;489.80;286.27;;;;;;;;;;7347958;19;20406;-25
2024/01/31 05:59:52;;;;;;;498.50;289.10;;;;;;;;;;7324314;19;20478;-22
2024/01/31 06:02:22;;;;;;;489.20;283.27;;;;;;;;;;7345865;19;20420;-22
2024/01/31 06:04:51;;;;;;;495.40;282.70;;;;;;;;;;7322721;19;20424;-22
2024/01/31 06:07:23;;;;;;;486.87;277.27;;;;;;;;;;7345788;19;20487;-22
2024/01/31 06:09:53;;;;;;;491.00;282.73;;;;;;;;;;7323038;19;20870;-23
2024/01/31 06:12:22;;;;;;;487.13;278.77;;;;;;;;;;7345378;19;20403;-21
2024/01/31 06:14:51;;;;;;;491.20;274.80;;;;;;;;;;7322111;19;20431;-24
2024/01/31 06:17:21;;;;;;;480.00;275.77;;;;;;;;;;7345645;19;20418;-21
2024/01/31 06:19:50;;;;;;;492.17;277.80;;;;;;;;;;7325871;19;20467;-21
2024/01/31 06:22:20;;;;;;;490.20;276.73;;;;;;;;;;7353099;19;20406;-21
2024/01/31 06:24:52;;;;;;;482.70;271.53;;;;;;;;;;7328869;19;20430;-20
2024/01/31 06:27:21;;;;;;;486.93;272.47;;;;;;;;;;7352542;19;20431;-24
2024/01/31 06:29:51;;;;;;;482.20;271.47;;;;;;;;;;7329123;19;20478;-23
2024/01/31 06:32:29;;;;;;;472.13;262.43;;;;;;;;;;7351609;19;20403;-21
2024/01/31 06:34:59;;;;;;;479.60;267.87;;;;;;;;;;7327585;19;20438;-23
2024/01/31 06:37:28;;;;;;;478.47;266.37;;;;;;;;;;7352294;19;20403;-21
2024/01/31 06:40:00;;;;;;;465.77;262.20;;;;;;;;;;7328978;19;20463;-25
2024/01/31 06:42:30;;;;;;;468.60;260.50;;;;;;;;;;7352310;19;20420;-24
2024/01/31 06:44:59;;;;;;;468.83;262.60;;;;;;;;;;7328521;19;20426;-23
2024/01/31 06:47:29;;;;;;;474.53;261.20;;;;;;;;;;7351884;19;20414;-23
2024/01/31 06:49:58;;;;;;;462.13;257.47;;;;;;;;;;7329067;19;20885;-26
2024/01/31 06:52:28;;;;;;;464.73;252.53;;;;;;;;;;7351914;19;20942;-24
2024/01/31 06:55:01;;;;;;;460.30;257.13;;;;;;;;;;7329798;19;20427;-25
2024/01/31 06:57:33;;;;;;;465.70;255.03;;;;;;;;;;7351898;19;21060;-23
2024/01/31 07:00:03;;;;;;;471.97;261.23;;;;;;;;;;7328956;19;20409;-24
2024/01/31 07:02:32;;;;;;;451.43;246.27;;;;;;;;;;7351149;19;20407;-23
2024/01/31 07:05:02;;;;;;;452.10;245.67;;;;;;;;;;7326774;19;20398;-23
2024/01/31 07:07:31;;;;;;;447.20;246.33;;;;;;;;;;7349004;19;20429;-23
2024/01/31 07:10:04;;;;;;;462.90;260.43;;;;;;;;;;7328126;19;20477;-23
2024/01/31 07:12:33;;;;;;;810.13;556.83;;;;;;;;;;7351375;19;20427;-22
2024/01/31 07:15:03;;;;;;;839.37;581.67;;;;;;;;;;7325727;19;20388;-22
2024/01/31 07:17:32;;;;;;;670.57;438.90;;;;;;;;;;7350742;19;20410;-22
2024/01/31 07:20:02;;;;;;;767.10;526.60;;;;;;;;;;7329115;19;20393;-21
2024/01/31 07:22:32;;;;;;;907.13;616.37;;;;;;;;;;7351652;19;20756;-23
2024/01/31 07:25:05;;;;;;;845.77;577.07;;;;;;;;;;7328311;19;20380;-23
2024/01/31 07:27:36;;;;;;;754.23;505.77;;;;;;;;;;7350464;19;20403;-22
2024/01/31 07:30:06;;;;;;;749.53;510.23;;;;;;;;;;7327885;19;20470;-21
2024/01/31 07:32:35;;;;;;;758.80;505.37;;;;;;;;;;7348710;19;20482;-26
2024/01/31 07:35:07;;;;;;;1032.37;700.37;;;;;;;;;;7325526;19;20395;-23
2024/01/31 07:37:37;;;;;;;1055.70;727.07;;;;;;;;;;7351343;19;20403;-27
2024/01/31 07:40:10;;;;;;;833.30;567.13;;;;;;;;;;7328171;19;20402;-22
2024/01/31 07:42:40;;;;;;;808.43;546.70;;;;;;;;;;7351546;19;20446;-22
2024/01/31 07:45:10;;;;;;;742.50;490.20;;;;;;;;;;7327479;19;20945;-23
2024/01/31 07:47:40;;;;;;;655.30;420.27;;;;;;;;;;7350475;19;20447;-23
2024/01/31 07:50:10;;;;;;;649.23;409.00;;;;;;;;;;7326411;19;20407;-27
2024/01/31 07:52:39;;;;;;;596.10;366.33;;;;;;;;;;7348891;19;21065;-24
2024/01/31 07:55:12;;;;;;;560.43;333.13;;;;;;;;;;7327281;19;20419;-21
2024/01/31 07:57:42;;;;;;;550.03;316.93;;;;;;;;;;7346840;19;20423;-20
2024/01/31 08:00:12;;;;;;;706.43;447.03;;;;;;;;;;7349219;19;20753;-23
2024/01/31 08:02:41;;;;;;;753.40;461.27;;;;;;;;;;7348438;19;20448;-22
2024/01/31 08:05:11;;;;;;;554.93;310.90;;;;;;;;;;7327222;19;20767;-24
2024/01/31 08:07:43;;;;;;;514.40;277.00;;;;;;;;;;7349816;19;20429;-24
2024/01/31 08:10:16;;;;;;;490.33;259.90;;;;;;;;;;7327970;19;20403;-23
2024/01/31 08:12:46;;;;;;;468.87;227.13;;;;;;;;;;7325189;19;20430;-21
2024/01/31 08:15:16;;;;;;;452.77;220.17;;;;;;;;;;7349406;19;20911;-26
2024/01/31 08:17:46;;;;;;;402.33;185.03;;;;;;;;;;7326198;19;20425;-22
2024/01/31 08:20:15;;;;;;;557.33;303.33;;;;;;;;;;7348617;19;20479;-23
2024/01/31 08:22:45;;;;;;;619.10;337.80;;;;;;;;;;7326707;19;20426;-24
2024/01/31 08:25:17;;;;;;;663.43;385.87;;;;;;;;;;7347922;19;20408;-24
2024/01/31 08:27:48;;;;;;;476.93;235.23;;;;;;;;;;7326505;19;20426;-24
2024/01/31 08:30:18;;;;;;;394.73;171.67;;;;;;;;;;7347893;19;20408;-26
2024/01/31 08:32:47;;;;;;;378.47;158.93;;;;;;;;;;7321262;19;20437;-27
2024/01/31 08:35:17;;;;;;;330.63;146.37;;;;;;;;;;7346312;19;20408;-23
2024/01/31 08:37:47;;;;;;;317.43;139.20;;;;;;;;;;7325452;19;20478;-20
2024/01/31 08:40:19;;;;;;;278.27;122.33;;;;;;;;;;7347483;19;20432;-23
2024/01/31 08:42:49;;;;;;;397.27;178.50;;;;;;;;;;7320947;19;20446;-22
2024/01/31 08:45:19;;;;;;;382.90;163.70;;;;;;;;;;7348269;19;20783;-22
2024/01/31 08:47:49;;;;;;;331.70;141.13;;;;;;;;;;7322674;19;20982;-20
2024/01/31 08:50:18;;;;;;;493.07;255.40;;;;;;;;;;7347594;19;20416;-20
2024/01/31 08:52:48;;;;;;;374.63;168.40;;;;;;;;;;7324043;19;20451;-22
2024/01/31 08:55:21;;;;;;;269.33;111.70;;;;;;;;;;7348203;19;20793;-22
2024/01/31 08:57:51;;;;;;;220.63;93.90;;;;;;;;;;7324042;19;21096;-24
2024/01/31 09:00:20;;;;;;;212.20;91.57;;;;;;;;;;7344807;19;20779;-25
2024/01/31 09:02:50;;;;;;;176.37;72.70;;;;;;;;;;7323923;19;20423;-21
2024/01/31 09:05:19;;;;;;;151.53;61.30;;;;;;;;;;7347614;19;20552;-21
2024/01/31 09:07:49;;;;;;;145.20;58.20;;;;;;;;;;7324591;19;20504;-21
2024/01/31 09:10:21;;;;;;;179.80;79.27;;;;;;;;;;7347601;19;20429;-23
2024/01/31 09:12:51;;;;;;;237.57;96.00;;;;;;;;;;7321792;19;20429;-23
2024/01/31 09:15:21;;;;;;;302.77;118.90;;;;;;;;;;7347517;19;20945;-21
2024/01/31 09:17:51;;;;;;;260.20;103.40;;;;;;;;;;7323659;19;20423;-23
2024/01/31 09:20:21;;;;;;;243.87;96.50;;;;;;;;;;7346417;19;20404;-22
2024/01/31 09:22:50;;;;;;;210.13;81.70;;;;;;;;;;7320766;19;20576;-22
2024/01/31 09:25:22;;;;;;;186.10;77.20;;;;;;;;;;7345822;19;20402;-22
2024/01/31 09:27:52;;;;;;;172.73;68.47;;;;;;;;;;7323098;19;20447;-25
2024/01/31 09:30:21;;;;;;;155.63;61.37;;;;;;;;;;7346419;19;20408;-22
2024/01/31 09:32:51;;;;;;;160.47;64.63;;;;;;;;;;7323403;19;20420;-21
2024/01/31 09:35:20;;;;;;;467.60;215.63;;;;;;;;;;7344614;19;20396;-22
2024/01/31 09:37:50;;;;;;;570.47;287.07;;;;;;;;;;7322487;19;21021;-23
2024/01/31 09:40:22;;;;;;;566.67;302.57;;;;;;;;;;7346113;19;20963;-21
2024/01/31 09:42:57;;;;;;;300.43;127.20;;;;;;;;;;7323036;19;20512;-22
2024/01/31 09:45:28;;;;;;;239.97;99.83;;;;;;;;;;7344337;19;20427;-23
2024/01/31 09:47:58;;;;;;;209.67;87.60;;;;;;;;;;7322961;19;20459;-25
2024/01/31 09:50:28;;;;;;;370.63;157.33;;;;;;;;;;7345465;19;20999;-23
2024/01/31 09:52:59;;;;;;;624.23;322.87;;;;;;;;;;7322588;19;20439;-23
2024/01/31 09:55:29;;;;;;;537.67;271.47;;;;;;;;;;7342099;19;20400;-23
2024/01/31 09:58:01;;;;;;;326.20;147.85;;;;;;;;;;7318479;19;20352;-25
2024/01/31 10:00:31;;;;;;;261.05;118.38;;;;;;;;;;7343931;19;20325;-24
2024/01/31 10:03:01;;;;;;;232.73;106.60;;;;;;;;;;7321180;19;20333;-25
2024/01/31 10:05:34;;;;;;;210.20;93.43;;;;;;;;;;7338874;19;20372;-23
2024/01/31 10:08:04;;;;;;;189.77;86.80;;;;;;;;;;7318659;19;20312;-24
2024/01/31 10:10:33;;;;;;;175.70;77.60;;;;;;;;;;7341175;19;20396;-22
2024/01/31 10:13:09;;;;;;;148.07;66.85;;;;;;;;;;7319067;19;20278;-20
2024/01/31 10:15:38;;;;;;;132.70;63.53;;;;;;;;;;7344452;19;20689;-23
2024/01/31 10:18:08;;;;;;;134.00;61.20;;;;;;;;;;7321289;19;20321;-25
2024/01/31 10:20:38;;;;;;;132.50;61.33;;;;;;;;;;7342577;19;21146;-23
2024/01/31 10:23:07;;;;;;;107.45;52.10;;;;;;;;;;7321168;19;20304;-23
2024/01/31 10:25:36;;;;;;;88.87;36.97;;;;;;;;;;7339361;19;20213;-24
2024/01/31 10:28:10;;;;;;;73.80;30.47;;;;;;;;;;7323113;19;20491;-26
2024/01/31 10:30:41;;;;;;;63.00;27.60;;;;;;;;;;7344725;19;20403;-25
2024/01/31 10:33:11;;;;;;;67.13;30.57;;;;;;;;;;7323277;19;20938;-25
2024/01/31 10:35:41;;;;;;;68.60;28.47;;;;;;;;;;7342185;19;22089;-24
2024/01/31 10:38:32;;;;;;;65.50;29.57;;;;;;;;;;7323621;19;20396;-23
2024/01/31 10:41:03;;;;;;;67.73;27.60;;;;;;;;;;7322135;19;20405;-26
2024/01/31 10:43:36;;;;;;;62.43;26.50;;;;;;;;;;7343242;19;20404;-26
2024/01/31 10:46:06;;;;;;;56.70;26.60;;;;;;;;;;7322033;19;20397;-23
2024/01/31 10:48:35;;;;;;;60.00;25.30;;;;;;;;;;7345420;19;20429;-23
2024/01/31 10:51:05;;;;;;;53.90;25.37;;;;;;;;;;7320601;19;20411;-26
2024/01/31 10:53:35;;;;;;;59.57;26.27;;;;;;;;;;7342895;19;20429;-24
2024/01/31 10:56:06;;;;;;;61.30;24.90;;;;;;;;;;7321507;19;20438;-24
2024/01/31 10:58:38;;;;;;;59.70;25.20;;;;;;;;;;7345243;19;20804;-23
2024/01/31 11:01:12;;;;;;;52.40;24.03;;;;;;;;;;7322343;19;20408;-27
2024/01/31 11:03:45;;;;;;;51.53;23.53;;;;;;;;;;7344324;19;20450;-25
2024/01/31 11:06:14;;;;;;;56.23;23.47;;;;;;;;;;7325459;19;20430;-23
2024/01/31 11:08:44;;;;;;;55.07;24.90;;;;;;;;;;7329231;19;20956;-24
2024/01/31 11:11:14;;;;;;;55.03;23.70;;;;;;;;;;7350460;19;20417;-25
2024/01/31 11:13:45;;;;;;;49.87;22.93;;;;;;;;;;7336531;19;20466;-23
2024/01/31 11:16:25;;;;;;;43.67;21.87;;;;;;;;;;7347884;19;20408;-23
2024/01/31 11:18:54;;;;;;;46.87;21.90;;;;;;;;;;7327096;19;20441;-23
2024/01/31 11:21:24;;;;;;;53.80;24.47;;;;;;;;;;7350451;19;20402;-23
2024/01/31 11:23:53;;;;;;;50.97;23.20;;;;;;;;;;7327844;19;20839;-24
2024/01/31 11:26:31;;;;;;;44.90;22.23;;;;;;;;;;7349544;19;20406;-27
2024/01/31 11:29:03;;;;;;;42.20;22.33;;;;;;;;;;7328244;19;20452;-24
2024/01/31 11:31:32;;;;;;;47.73;22.00;;;;;;;;;;7350975;19;20966;-25
2024/01/31 11:34:02;;;;;;;46.53;22.40;;;;;;;;;;7327838;19;20842;-24
2024/01/31 11:36:31;;;;;;;58.83;22.93;;;;;;;;;;7349413;19;20485;-25
2024/01/31 11:39:01;;;;;;;46.03;22.03;;;;;;;;;;7326846;19;20475;-24
2024/01/31 11:41:30;;;;;;;40.90;21.27;;;;;;;;;;7349919;19;20489;-23
2024/01/31 11:44:03;;;;;;;45.53;21.00;;;;;;;;;;7326623;19;20427;-25
2024/01/31 11:46:32;;;;;;;41.47;20.00;;;;;;;;;;7351053;19;20487;-23
2024/01/31 11:49:01;;;;;;;39.93;20.17;;;;;;;;;;7328070;19;20523;-27
2024/01/31 11:51:31;;;;;;;45.20;20.73;;;;;;;;;;7349996;19;20410;-24
2024/01/31 11:54:01;;;;;;;40.83;20.30;;;;;;;;;;7327188;19;20431;-26
2024/01/31 11:56:30;;;;;;;38.60;20.70;;;;;;;;;;7350138;19;20941;-24
2024/01/31 11:59:03;;;;;;;45.07;21.60;;;;;;;;;;7326523;19;20439;-24
2024/01/31 12:01:33;;;;;;;44.33;20.93;;;;;;;;;;7349185;19;20410;-23
2024/01/31 12:04:04;;;;;;;40.73;19.37;;;;;;;;;;7326546;19;20887;-25
2024/01/31 12:06:34;;;;;;;44.97;20.77;;;;;;;;;;7349818;19;21057;-25
2024/01/31 12:09:04;;;;;;;42.47;19.90;;;;;;;;;;7327280;19;21200;-23
2024/01/31 12:11:34;;;;;;;40.67;20.50;;;;;;;;;;7349335;19;20419;-23
2024/01/31 12:14:06;;;;;;;37.60;19.43;;;;;;;;;;7326688;19;20399;-24
2024/01/31 12:16:42;;;;;;;43.37;21.23;;;;;;;;;;7349194;19;20410;-23
2024/01/31 12:19:11;;;;;;;40.10;21.15;;;;;;;;;;7325109;19;20301;-26
2024/01/31 12:21:41;;;;;;;40.27;21.10;;;;;;;;;;7346724;19;20194;-22
2024/01/31 12:24:11;;;;;;;37.77;19.13;;;;;;;;;;7327934;19;20438;-23
2024/01/31 12:26:41;;;;;;;37.77;19.43;;;;;;;;;;7349904;19;20442;-23
2024/01/31 12:29:13;;;;;;;38.20;18.47;;;;;;;;;;7322584;19;20885;-24
2024/01/31 12:31:45;;;;;;;39.03;18.80;;;;;;;;;;7341205;19;20563;-23
2024/01/31 12:34:14;;;;;;;39.70;18.13;;;;;;;;;;7348857;19;20753;-24
2024/01/31 12:36:44;;;;;;;37.10;18.63;;;;;;;;;;7322362;19;20545;-23
2024/01/31 12:39:17;;;;;;;39.17;19.23;;;;;;;;;;7347507;19;20459;-23
2024/01/31 12:41:47;;;;;;;92.67;43.70;;;;;;;;;;7327206;19;20506;-24
2024/01/31 12:44:21;;;;;;;185.50;85.63;;;;;;;;;;7347044;19;20948;-35
2024/01/31 12:46:51;;;;;;;216.43;103.47;;;;;;;;;;7323690;19;20427;-23
2024/01/31 12:49:20;;;;;;;283.93;128.50;;;;;;;;;;7349319;19;20448;-22
2024/01/31 12:51:50;;;;;;;307.57;145.67;;;;;;;;;;7325179;19;20435;-22
2024/01/31 12:54:19;;;;;;;358.83;166.63;;;;;;;;;;7348391;19;20391;-23
2024/01/31 12:56:48;;;;;;;429.20;206.57;;;;;;;;;;7325721;19;20771;-27
2024/01/31 12:59:18;;;;;;;521.97;282.27;;;;;;;;;;7347743;19;20807;-23
2024/01/31 13:01:54;;;;;;;520.83;294.63;;;;;;;;;;7326365;19;20449;-24
2024/01/31 13:04:24;;;;;;;548.93;304.70;;;;;;;;;;7347904;19;20403;-29
2024/01/31 13:06:55;;;;;;;415.33;194.37;;;;;;;;;;7322201;19;20909;-25
2024/01/31 13:09:25;;;;;;;405.97;181.80;;;;;;;;;;7347700;19;20509;-25
2024/01/31 13:11:54;;;;;;;413.23;187.73;;;;;;;;;;7324810;19;20437;-24
2024/01/31 13:14:24;;;;;;;356.23;168.73;;;;;;;;;;7346815;19;20489;-25
2024/01/31 13:16:55;;;;;;;422.97;208.77;;;;;;;;;;7326151;19;20455;-23
2024/01/31 13:19:31;;;;;;;436.90;214.00;;;;;;;;;;7348780;19;20455;-22
2024/01/31 13:22:00;;;;;;;435.67;213.00;;;;;;;;;;7322593;19;20422;-23
2024/01/31 13:24:31;;;;;;;358.90;167.33;;;;;;;;;;7347782;19;20441;-24
2024/01/31 13:27:00;;;;;;;324.10;150.23;;;;;;;;;;7325673;19;20413;-24
2024/01/31 13:29:30;;;;;;;295.93;137.37;;;;;;;;;;7347524;19;20408;-23
2024/01/31 13:32:02;;;;;;;242.50;117.33;;;;;;;;;;7323566;19;20483;-22
2024/01/31 13:34:31;;;;;;;209.87;104.63;;;;;;;;;;7346726;19;20405;-24
2024/01/31 13:37:03;;;;;;;216.43;101.20;;;;;;;;;;7323888;19;20456;-31
2024/01/31 13:39:33;;;;;;;201.43;94.07;;;;;;;;;;7348153;19;20963;-21
2024/01/31 13:42:02;;;;;;;200.33;92.57;;;;;;;;;;7325807;19;20462;-22
2024/01/31 13:44:32;;;;;;;165.43;77.33;;;;;;;;;;7348385;19;20431;-23
2024/01/31 13:47:05;;;;;;;143.57;65.40;;;;;;;;;;7325046;19;20447;-22
2024/01/31 13:49:35;;;;;;;143.47;64.83;;;;;;;;;;7345558;19;20962;-24
2024/01/31 13:52:04;;;;;;;136.77;61.40;;;;;;;;;;7319839;19;20494;-25
2024/01/31 13:54:33;;;;;;;112.07;51.00;;;;;;;;;;7348280;19;21027;-25
2024/01/31 13:57:03;;;;;;;97.20;45.63;;;;;;;;;;7325605;19;20793;-25
2024/01/31 13:59:34;;;;;;;98.30;44.80;;;;;;;;;;7347780;19;20463;-26
2024/01/31 14:02:06;;;;;;;79.90;38.90;;;;;;;;;;7324549;19;20407;-23
2024/01/31 14:04:36;;;;;;;82.73;42.40;;;;;;;;;;7345187;19;20409;-22
2024/01/31 14:07:05;;;;;;;67.55;37.85;;;;;;;;;;7322682;19;20308;-24
2024/01/31 14:09:32;;;;;;;68.05;37.80;;;;;;;;;;7345333;19;20309;-23
2024/01/31 14:12:03;;;;;;;59.60;33.40;;;;;;;;;;7322586;19;20296;-23
2024/01/31 14:14:33;;;;;;;57.75;31.58;;;;;;;;;;7344004;19;20300;-23
2024/01/31 14:17:03;;;;;;;53.80;30.27;;;;;;;;;;7322522;19;20286;-23